Forside
METAR-TAF:

METAR-TAF

Lufthavne :

Matsumoto, Japan

Breddekreds: 36-10N, længdekreds: 137-56E, højde: 668 m

Aktuelle vejr

Denne rapport blev lavet for 51 minutter siden, kl. 07:00 UTC
Vind 11 kt fra nord
Temperatur 1°C
Fugtighed 55%
Tryk 1017 hPa
Sigt 10 km eller mere
Nogle få skyer i en højde af 2000 ft
Spredte skyer i en højde af 3000 ft
Brudte skyer i en højde af 4500 ft
byger i nærheden

METAR: RJAF 270700Z 35011KT 9999 VCSH FEW020 SCT030 BKN045 01/M07 Q1017

Tid: 16:51 (07:51 UTC)


TAF: fraværende

Vejrobservationer og prognoser fra mere end 4000 lufthavne (METAR og TAF).

De gule og røde prikker repræsenterer de meteorologiske stationer.

Flyt musen over at se navnet på stationen.

Så klik over at se vejr observationer og prognoser.

At skifte det kort: Klik på de grønne knapper med et sort kors for at zoome ind; på den grønne knap med en bindestreg for at zoome ud; eller på de grønne pile for tilstødende kort.


METAR-TAF: